Sumise Maru No.22 — JD3589 — position and weather

sailwx.info

Track history (hours):
 
Tides and Currents Weather Stations Pressure Air Temp Water Temp Dewpoint Dewpoint Depression Visibility Wind Speed Wind Dir Waves Ship Positions

Sumise Maru No.22

Last reported at 2018-Jan-20 12:59 UTC. Time now 2018-Jan-20 13:23 UTC.
Position N 34°34' E 138°46'.

Length 116 m; draft 5.5 m.

Type: Cargo ship. MMSI: 431005246.

Date/timePositionNaut miles runAvg speedWind from/ knotsBaromVisibWave heightAir tempDewpointWater temp
2018-Jan-20 12:59N 34°34' E 138°46'611.4
2018-Jan-20 12:27N 34°33' E 138°53'510.3
2018-Jan-20 12:00N 34°34' E 138°58'612.6
2018-Jan-20 11:30N 34°39' E 139°03'1012.4
2018-Jan-20 10:43N 34°47' E 139°11'312.4
2018-Jan-20 10:28N 34°49' E 139°14'912.2
2018-Jan-20 09:43N 34°55' E 139°22'411.9
2018-Jan-20 09:22N 34°58' E 139°26'512.9
2018-Jan-20 08:58N 35°01' E 139°31'613.1
2018-Jan-20 08:30N 35°04' E 139°37'713.3
2018-Jan-20 08:00N 35°08' E 139°43'612.6
2018-Jan-20 07:30N 35°14' E 139°46'611.2
2018-Jan-20 07:00N 35°19' E 139°43'611.4
2018-Jan-20 06:30N 35°25' E 139°43'613.0
2018-Jan-20 06:00N 35°29' E 139°49'713.0
2018-Jan-20 05:28N 35°34' E 139°55'612.3
2018-Jan-20 05:01N 35°39' E 139°59'1 0.3
2018-Jan-19 23:29N 35°40' E 140°00'1 1.9
2018-Jan-19 23:00N 35°40' E 139°59'510.2
2018-Jan-19 22:30N 35°34' E 139°58'612.1
2018-Jan-19 22:00N 35°30' E 139°53'612.0
2018-Jan-19 21:31N 35°26' E 139°48'611.8
2018-Jan-19 21:00N 35°21' E 139°45'611.1
2018-Jan-19 20:30N 35°15' E 139°47'612.1
2018-Jan-19 20:01N 35°09' E 139°47'611.2
2018-Jan-19 19:30N 35°04' E 139°45'611.7
2018-Jan-19 19:00N 35°00' E 139°39'612.1
2018-Jan-19 18:30N 34°57' E 139°33'3 6.6
2018-Jan-19 18:00N 34°59' E 139°36'612.4
2018-Jan-19 17:30N 34°56' E 139°30'712.9
2018-Jan-19 16:56N 34°51' E 139°23'812.8
2018-Jan-19 16:16N 34°46' E 139°15'412.5
2018-Jan-19 16:00N 34°43' E 139°12'612.4
2018-Jan-19 15:31N 34°39' E 139°07'812.8
2018-Jan-19 14:52N 34°33' E 138°59'412.4
2018-Jan-19 14:31N 34°31' E 138°55'2711.3
2018-Jan-19 12:05N 34°26' E 138°22'16910.6
2018-Jan-18 20:09N 33°48' E 135°04'212.9
2018-Jan-18 20:00N 33°50' E 135°02'612.8
2018-Jan-18 19:30N 33°56' E 134°59'613.0
2018-Jan-18 19:01N 34°02' E 134°58'713.5
2018-Jan-18 18:30N 34°09' E 134°59'714.7
2018-Jan-18 18:01N 34°16' E 134°59'714.1
2018-Jan-18 17:30N 34°23' E 134°60'713.4
2018-Jan-18 17:00N 34°29' E 135°02'713.4
2018-Jan-18 16:30N 34°36' E 135°02'713.8
2018-Jan-18 16:00N 34°37' E 134°54'714.1
2018-Jan-18 15:29N 34°39' E 134°45'612.7
2018-Jan-18 15:00N 34°42' E 134°39'612.5
2018-Jan-18 14:30N 34°42' E 134°31'712.1
2018-Jan-18 13:55N 34°42' E 134°22'3 7.7
2018-Jan-18 13:31N 34°45' E 134°22'0 0.1
2018-Jan-18 12:57N 34°45' E 134°22'0 0.0
2018-Jan-18 12:21N 34°45' E 134°22'0 0.0
2018-Jan-18 11:57N 34°45' E 134°22'0 0.0
2018-Jan-18 11:21N 34°45' E 134°22'0 0.0
2018-Jan-18 10:57N 34°45' E 134°22'0 0.0
2018-Jan-18 10:15N 34°45' E 134°22'0 0.0
2018-Jan-18 09:51N 34°45' E 134°22'0 0.0
2018-Jan-18 07:05N 34°45' E 134°22'0 0.1
2018-Jan-18 06:59N 34°45' E 134°22'3 5.4
2018-Jan-18 06:25N 34°42' E 134°23'1 0.3
2018-Jan-18 02:30N 34°42' E 134°25'0 0.0
2018-Jan-18 02:00N 34°42' E 134°25'0 0.1
2018-Jan-18 00:06N 34°42' E 134°24'  
2018-Jan-12 06:10N 34°37' E 136°54'314.3
2018-Jan-12 05:59N 34°39' E 136°51'714.2
2018-Jan-12 05:30N 34°45' E 136°47'714.0
2018-Jan-12 05:00N 34°52' E 136°46'713.4
2018-Jan-12 04:31N 34°58' E 136°48'612.1
2018-Jan-12 04:00N 35°04' E 136°52'0 0.2
2018-Jan-12 03:22N 35°04' E 136°52'0 0.0
2018-Jan-12 02:58N 35°04' E 136°52'0 0.0
2018-Jan-12 02:28N 35°04' E 136°52'0 0.0
2018-Jan-12 01:58N 35°04' E 136°52'0 0.0
2018-Jan-12 01:28N 35°04' E 136°52'0 0.0
2018-Jan-12 00:58N 35°04' E 136°52'0 0.0
2018-Jan-12 00:28N 35°04' E 136°52'0 0.0
2018-Jan-11 23:59N 35°04' E 136°52'0 0.0
2018-Jan-11 23:29N 35°04' E 136°52'1 1.7
2018-Jan-11 23:01N 35°03' E 136°51'611.5
2018-Jan-11 22:30N 34°58' E 136°48'612.4
2018-Jan-11 22:01N 34°52' E 136°47'611.9
2018-Jan-11 21:31N 34°46' E 136°49'611.5
2018-Jan-11 21:00N 34°41' E 136°53'1810.4
2018-Jan-11 19:17N 34°32' E 137°11'311.3
2018-Jan-11 19:00N 34°31' E 137°15'3911.3
2018-Jan-11 15:34N 34°31' E 138°02'110.6
2018-Jan-11 15:27N 34°31' E 138°04'810.1
2018-Jan-11 14:42N 34°31' E 138°13'210.0
2018-Jan-11 14:29N 34°31' E 138°15'5 9.7
2018-Jan-11 13:57N 34°32' E 138°22'510.0
2018-Jan-11 13:29N 34°31' E 138°27'5 9.9
2018-Jan-11 13:01N 34°31' E 138°33'6 9.3
2018-Jan-11 12:25N 34°32' E 138°40'9 9.4
2018-Jan-11 11:28N 34°32' E 138°50'4 8.5
2018-Jan-11 11:00N 34°33' E 138°55'4 8.1
2018-Jan-11 10:30N 34°35' E 138°59'5 9.9
2018-Jan-11 09:59N 34°39' E 139°03'1010.0
2018-Jan-11 08:59N 34°47' E 139°11'5 9.7
2018-Jan-11 08:30N 34°50' E 139°15'5 9.5
2018-Jan-11 07:58N 34°54' E 139°19'6 9.9
2018-Jan-11 07:22N 34°57' E 139°25'4 9.3
2018-Jan-11 07:00N 34°59' E 139°29'5 9.6
2018-Jan-11 06:31N 35°02' E 139°33'510.5
2018-Jan-11 06:00N 35°05' E 139°38'510.3
2018-Jan-11 05:31N 35°08' E 139°43'510.6
2018-Jan-11 05:00N 35°13' E 139°46'611.6
2018-Jan-11 04:30N 35°18' E 139°44'611.9
2018-Jan-11 04:00N 35°24' E 139°42'2 3.2
2018-Jan-11 03:30N 35°26' E 139°41'0 0.0
2018-Jan-11 02:57N 35°26' E 139°41'0 0.0
2018-Jan-11 02:30N 35°26' E 139°41'0 0.0
2018-Jan-11 01:57N 35°26' E 139°41'0 0.0
2018-Jan-11 01:27N 35°26' E 139°41'0 0.0
2018-Jan-11 01:00N 35°26' E 139°41'0 0.0
2018-Jan-11 00:27N 35°26' E 139°41'0 0.1
2018-Jan-10 23:57N 35°26' E 139°41'0 0.0
2018-Jan-10 23:27N 35°26' E 139°41'0 0.0
2018-Jan-10 23:00N 35°26' E 139°41'0 0.1
2018-Jan-10 22:30N 35°26' E 139°41'1 1.5
2018-Jan-10 21:59N 35°25' E 139°42'0 0.1
2018-Jan-10 21:29N 35°25' E 139°42'0 0.0
2018-Jan-10 20:56N 35°25' E 139°42'0 0.0
2018-Jan-10 20:29N 35°25' E 139°42'0 0.0
2018-Jan-10 19:59N 35°25' E 139°42'0 0.0
2018-Jan-10 19:30N 35°25' E 139°42'0 0.0
2018-Jan-10 18:59N 35°25' E 139°42'0 0.0
2018-Jan-10 18:29N 35°25' E 139°42'0 0.1
2018-Jan-10 17:59N 35°25' E 139°42'0 0.0
2018-Jan-10 17:29N 35°25' E 139°42'0 0.2
2018-Jan-10 16:59N 35°25' E 139°42'0 0.1
2018-Jan-10 16:29N 35°25' E 139°42'0 0.1
2018-Jan-10 15:56N 35°25' E 139°42'0 0.1
2018-Jan-10 15:29N 35°25' E 139°42'0 0.1
2018-Jan-10 14:59N 35°25' E 139°42'0 0.0
2018-Jan-10 14:29N 35°25' E 139°42'0 0.0
2018-Jan-10 13:59N 35°25' E 139°42'0 0.0
2018-Jan-10 13:29N 35°25' E 139°42'0 0.0
2018-Jan-10 12:59N 35°25' E 139°42'  
Track history (hours):
 
Tides and Currents Weather Stations Pressure Air Temp Water Temp Dewpoint Dewpoint Depression Visibility Wind Speed Wind Dir Waves Ship Positions

Sumise Maru No.22

Last reported at 2018-Jan-20 12:59 UTC. Time now 2018-Jan-20 13:23 UTC.
Position N 34°34' E 138°46'.

Length 116 m; draft 5.5 m.

Type: Cargo ship. MMSI: 431005246.

Date/timePositionNaut miles runAvg speedWind from/ knotsBaromVisibWave heightAir tempDewpointWater temp
2018-Jan-20 12:59N 34°34' E 138°46'611.4
2018-Jan-20 12:27N 34°33' E 138°53'510.3
2018-Jan-20 12:00N 34°34' E 138°58'612.6
2018-Jan-20 11:30N 34°39' E 139°03'1012.4
2018-Jan-20 10:43N 34°47' E 139°11'312.4
2018-Jan-20 10:28N 34°49' E 139°14'912.2
2018-Jan-20 09:43N 34°55' E 139°22'411.9
2018-Jan-20 09:22N 34°58' E 139°26'512.9
2018-Jan-20 08:58N 35°01' E 139°31'613.1
2018-Jan-20 08:30N 35°04' E 139°37'713.3
2018-Jan-20 08:00N 35°08' E 139°43'612.6
2018-Jan-20 07:30N 35°14' E 139°46'611.2
2018-Jan-20 07:00N 35°19' E 139°43'611.4
2018-Jan-20 06:30N 35°25' E 139°43'613.0
2018-Jan-20 06:00N 35°29' E 139°49'713.0
2018-Jan-20 05:28N 35°34' E 139°55'612.3
2018-Jan-20 05:01N 35°39' E 139°59'1 0.3
2018-Jan-19 23:29N 35°40' E 140°00'1 1.9
2018-Jan-19 23:00N 35°40' E 139°59'510.2
2018-Jan-19 22:30N 35°34' E 139°58'612.1
2018-Jan-19 22:00N 35°30' E 139°53'612.0
2018-Jan-19 21:31N 35°26' E 139°48'611.8
2018-Jan-19 21:00N 35°21' E 139°45'611.1
2018-Jan-19 20:30N 35°15' E 139°47'612.1
2018-Jan-19 20:01N 35°09' E 139°47'611.2
2018-Jan-19 19:30N 35°04' E 139°45'611.7
2018-Jan-19 19:00N 35°00' E 139°39'612.1
2018-Jan-19 18:30N 34°57' E 139°33'3 6.6
2018-Jan-19 18:00N 34°59' E 139°36'612.4
2018-Jan-19 17:30N 34°56' E 139°30'712.9
2018-Jan-19 16:56N 34°51' E 139°23'812.8
2018-Jan-19 16:16N 34°46' E 139°15'412.5
2018-Jan-19 16:00N 34°43' E 139°12'612.4
2018-Jan-19 15:31N 34°39' E 139°07'812.8
2018-Jan-19 14:52N 34°33' E 138°59'412.4
2018-Jan-19 14:31N 34°31' E 138°55'2711.3
2018-Jan-19 12:05N 34°26' E 138°22'16910.6
2018-Jan-18 20:09N 33°48' E 135°04'212.9
2018-Jan-18 20:00N 33°50' E 135°02'612.8
2018-Jan-18 19:30N 33°56' E 134°59'613.0
2018-Jan-18 19:01N 34°02' E 134°58'713.5
2018-Jan-18 18:30N 34°09' E 134°59'714.7
2018-Jan-18 18:01N 34°16' E 134°59'714.1
2018-Jan-18 17:30N 34°23' E 134°60'713.4
2018-Jan-18 17:00N 34°29' E 135°02'713.4
2018-Jan-18 16:30N 34°36' E 135°02'713.8
2018-Jan-18 16:00N 34°37' E 134°54'714.1
2018-Jan-18 15:29N 34°39' E 134°45'612.7
2018-Jan-18 15:00N 34°42' E 134°39'612.5
2018-Jan-18 14:30N 34°42' E 134°31'712.1
2018-Jan-18 13:55N 34°42' E 134°22'3 7.7
2018-Jan-18 13:31N 34°45' E 134°22'0 0.1
2018-Jan-18 12:57N 34°45' E 134°22'0 0.0
2018-Jan-18 12:21N 34°45' E 134°22'0 0.0
2018-Jan-18 11:57N 34°45' E 134°22'0 0.0
2018-Jan-18 11:21N 34°45' E 134°22'0 0.0
2018-Jan-18 10:57N 34°45' E 134°22'0 0.0
2018-Jan-18 10:15N 34°45' E 134°22'0 0.0
2018-Jan-18 09:51N 34°45' E 134°22'0 0.0
2018-Jan-18 07:05N 34°45' E 134°22'0 0.1
2018-Jan-18 06:59N 34°45' E 134°22'3 5.4
2018-Jan-18 06:25N 34°42' E 134°23'1 0.3
2018-Jan-18 02:30N 34°42' E 134°25'0 0.0
2018-Jan-18 02:00N 34°42' E 134°25'0 0.1
2018-Jan-18 00:06N 34°42' E 134°24'  
2018-Jan-12 06:10N 34°37' E 136°54'314.3
2018-Jan-12 05:59N 34°39' E 136°51'714.2
2018-Jan-12 05:30N 34°45' E 136°47'714.0
2018-Jan-12 05:00N 34°52' E 136°46'713.4
2018-Jan-12 04:31N 34°58' E 136°48'612.1
2018-Jan-12 04:00N 35°04' E 136°52'0 0.2
2018-Jan-12 03:22N 35°04' E 136°52'0 0.0
2018-Jan-12 02:58N 35°04' E 136°52'0 0.0
2018-Jan-12 02:28N 35°04' E 136°52'0 0.0
2018-Jan-12 01:58N 35°04' E 136°52'0 0.0
2018-Jan-12 01:28N 35°04' E 136°52'0 0.0
2018-Jan-12 00:58N 35°04' E 136°52'0 0.0
2018-Jan-12 00:28N 35°04' E 136°52'0 0.0
2018-Jan-11 23:59N 35°04' E 136°52'0 0.0
2018-Jan-11 23:29N 35°04' E 136°52'1 1.7
2018-Jan-11 23:01N 35°03' E 136°51'611.5
2018-Jan-11 22:30N 34°58' E 136°48'612.4
2018-Jan-11 22:01N 34°52' E 136°47'611.9
2018-Jan-11 21:31N 34°46' E 136°49'611.5
2018-Jan-11 21:00N 34°41' E 136°53'1810.4
2018-Jan-11 19:17N 34°32' E 137°11'311.3
2018-Jan-11 19:00N 34°31' E 137°15'3911.3
2018-Jan-11 15:34N 34°31' E 138°02'110.6
2018-Jan-11 15:27N 34°31' E 138°04'810.1
2018-Jan-11 14:42N 34°31' E 138°13'210.0
2018-Jan-11 14:29N 34°31' E 138°15'5 9.7
2018-Jan-11 13:57N 34°32' E 138°22'510.0
2018-Jan-11 13:29N 34°31' E 138°27'5 9.9
2018-Jan-11 13:01N 34°31' E 138°33'6 9.3
2018-Jan-11 12:25N 34°32' E 138°40'9 9.4
2018-Jan-11 11:28N 34°32' E 138°50'4 8.5
2018-Jan-11 11:00N 34°33' E 138°55'4 8.1
2018-Jan-11 10:30N 34°35' E 138°59'5 9.9
2018-Jan-11 09:59N 34°39' E 139°03'1010.0
2018-Jan-11 08:59N 34°47' E 139°11'5 9.7
2018-Jan-11 08:30N 34°50' E 139°15'5 9.5
2018-Jan-11 07:58N 34°54' E 139°19'6 9.9
2018-Jan-11 07:22N 34°57' E 139°25'4 9.3
2018-Jan-11 07:00N 34°59' E 139°29'5 9.6
2018-Jan-11 06:31N 35°02' E 139°33'510.5
2018-Jan-11 06:00N 35°05' E 139°38'510.3
2018-Jan-11 05:31N 35°08' E 139°43'510.6
2018-Jan-11 05:00N 35°13' E 139°46'611.6
2018-Jan-11 04:30N 35°18' E 139°44'611.9
2018-Jan-11 04:00N 35°24' E 139°42'2 3.2
2018-Jan-11 03:30N 35°26' E 139°41'0 0.0
2018-Jan-11 02:57N 35°26' E 139°41'0 0.0
2018-Jan-11 02:30N 35°26' E 139°41'0 0.0
2018-Jan-11 01:57N 35°26' E 139°41'0 0.0
2018-Jan-11 01:27N 35°26' E 139°41'0 0.0
2018-Jan-11 01:00N 35°26' E 139°41'0 0.0
2018-Jan-11 00:27N 35°26' E 139°41'0 0.1
2018-Jan-10 23:57N 35°26' E 139°41'0 0.0
2018-Jan-10 23:27N 35°26' E 139°41'0 0.0
2018-Jan-10 23:00N 35°26' E 139°41'0 0.1
2018-Jan-10 22:30N 35°26' E 139°41'1 1.5
2018-Jan-10 21:59N 35°25' E 139°42'0 0.1
2018-Jan-10 21:29N 35°25' E 139°42'0 0.0
2018-Jan-10 20:56N 35°25' E 139°42'0 0.0
2018-Jan-10 20:29N 35°25' E 139°42'0 0.0
2018-Jan-10 19:59N 35°25' E 139°42'0 0.0
2018-Jan-10 19:30N 35°25' E 139°42'0 0.0
2018-Jan-10 18:59N 35°25' E 139°42'0 0.0
2018-Jan-10 18:29N 35°25' E 139°42'0 0.1
2018-Jan-10 17:59N 35°25' E 139°42'0 0.0
2018-Jan-10 17:29N 35°25' E 139°42'0 0.2
2018-Jan-10 16:59N 35°25' E 139°42'0 0.1
2018-Jan-10 16:29N 35°25' E 139°42'0 0.1
2018-Jan-10 15:56N 35°25' E 139°42'0 0.1
2018-Jan-10 15:29N 35°25' E 139°42'0 0.1
2018-Jan-10 14:59N 35°25' E 139°42'0 0.0
2018-Jan-10 14:29N 35°25' E 139°42'0 0.0
2018-Jan-10 13:59N 35°25' E 139°42'0 0.0
2018-Jan-10 13:29N 35°25' E 139°42'0 0.0
2018-Jan-10 12:59N 35°25' E 139°42'  

Dump ship's entire track history